sensor_id;sensor_type;location;lat;lon;timestamp;temperature;humidity
19342;DHT22;9807;48.258;12.690;2023-04-25T00:01:31;9.10;99.90
19342;DHT22;9807;48.258;12.690;2023-04-25T00:04:00;9.40;99.90
19342;DHT22;9807;48.258;12.690;2023-04-25T00:06:26;9.90;99.90
19342;DHT22;9807;48.258;12.690;2023-04-25T00:08:52;10.10;99.90
19342;DHT22;9807;48.258;12.690;2023-04-25T00:11:19;10.50;99.90
19342;DHT22;9807;48.258;12.690;2023-04-25T00:13:45;10.70;99.90
19342;DHT22;9807;48.258;12.690;2023-04-25T00:16:11;11.10;99.90
19342;DHT22;9807;48.258;12.690;2023-04-25T00:18:39;11.30;99.90
19342;DHT22;9807;48.258;12.690;2023-04-25T00:21:05;11.50;99.90
19342;DHT22;9807;48.258;12.690;2023-04-25T00:23:31;11.70;99.90
19342;DHT22;9807;48.258;12.690;2023-04-25T00:25:57;11.80;99.90
19342;DHT22;9807;48.258;12.690;2023-04-25T00:28:23;11.80;99.90
19342;DHT22;9807;48.258;12.690;2023-04-25T00:30:48;11.90;99.90
19342;DHT22;9807;48.258;12.690;2023-04-25T00:33:17;11.90;99.90
19342;DHT22;9807;48.258;12.690;2023-04-25T00:35:42;11.90;99.90
19342;DHT22;9807;48.258;12.690;2023-04-25T00:38:08;11.90;99.90
19342;DHT22;9807;48.258;12.690;2023-04-25T00:40:35;11.90;99.90
19342;DHT22;9807;48.258;12.690;2023-04-25T00:43:00;11.80;99.90
19342;DHT22;9807;48.258;12.690;2023-04-25T00:45:29;11.90;99.90
19342;DHT22;9807;48.258;12.690;2023-04-25T00:47:55;11.90;99.90
19342;DHT22;9807;48.258;12.690;2023-04-25T00:50:22;12.00;99.90
19342;DHT22;9807;48.258;12.690;2023-04-25T00:52:47;12.00;99.90
19342;DHT22;9807;48.258;12.690;2023-04-25T00:55:13;12.10;99.90
19342;DHT22;9807;48.258;12.690;2023-04-25T00:57:39;12.00;99.90
19342;DHT22;9807;48.258;12.690;2023-04-25T01:00:07;11.70;99.90
19342;DHT22;9807;48.258;12.690;2023-04-25T01:02:38;11.70;99.90
19342;DHT22;9807;48.258;12.690;2023-04-25T01:05:04;11.70;99.90
19342;DHT22;9807;48.258;12.690;2023-04-25T01:07:30;11.80;99.90
19342;DHT22;9807;48.258;12.690;2023-04-25T01:09:56;11.80;99.90
19342;DHT22;9807;48.258;12.690;2023-04-25T01:12:22;11.20;99.90
19342;DHT22;9807;48.258;12.690;2023-04-25T01:14:48;10.70;99.90
19342;DHT22;9807;48.258;12.690;2023-04-25T01:17:14;10.90;99.90
19342;DHT22;9807;48.258;12.690;2023-04-25T01:19:40;11.10;99.90
19342;DHT22;9807;48.258;12.690;2023-04-25T01:22:06;11.40;99.90
19342;DHT22;9807;48.258;12.690;2023-04-25T01:24:32;11.60;99.90
19342;DHT22;9807;48.258;12.690;2023-04-25T01:27:02;11.80;99.90
19342;DHT22;9807;48.258;12.690;2023-04-25T01:29:29;11.90;99.90
19342;DHT22;9807;48.258;12.690;2023-04-25T01:31:55;11.50;99.90
19342;DHT22;9807;48.258;12.690;2023-04-25T01:34:21;11.30;99.90
19342;DHT22;9807;48.258;12.690;2023-04-25T01:36:51;10.80;99.90
19342;DHT22;9807;48.258;12.690;2023-04-25T01:39:17;10.50;99.90
19342;DHT22;9807;48.258;12.690;2023-04-25T01:41:43;10.50;99.90
19342;DHT22;9807;48.258;12.690;2023-04-25T01:44:09;10.70;99.90
19342;DHT22;9807;48.258;12.690;2023-04-25T01:46:35;10.60;99.90
19342;DHT22;9807;48.258;12.690;2023-04-25T01:49:01;10.60;99.90
19342;DHT22;9807;48.258;12.690;2023-04-25T01:51:27;10.80;99.90
19342;DHT22;9807;48.258;12.690;2023-04-25T01:53:54;11.10;99.90
19342;DHT22;9807;48.258;12.690;2023-04-25T01:56:20;11.30;99.90
19342;DHT22;9807;48.258;12.690;2023-04-25T01:58:46;11.20;99.90
19342;DHT22;9807;48.258;12.690;2023-04-25T02:01:12;10.40;99.90
19342;DHT22;9807;48.258;12.690;2023-04-25T02:03:37;9.90;99.90
19342;DHT22;9807;48.258;12.690;2023-04-25T02:06:03;9.40;99.90
19342;DHT22;9807;48.258;12.690;2023-04-25T02:08:29;8.80;99.90
19342;DHT22;9807;48.258;12.690;2023-04-25T02:10:55;8.70;99.90
19342;DHT22;9807;48.258;12.690;2023-04-25T02:13:21;8.50;99.90
19342;DHT22;9807;48.258;12.690;2023-04-25T02:15:47;8.70;99.90
19342;DHT22;9807;48.258;12.690;2023-04-25T02:18:12;9.20;99.90
19342;DHT22;9807;48.258;12.690;2023-04-25T02:20:38;9.80;99.90
19342;DHT22;9807;48.258;12.690;2023-04-25T02:23:04;10.30;99.90
19342;DHT22;9807;48.258;12.690;2023-04-25T02:25:30;10.70;99.90
19342;DHT22;9807;48.258;12.690;2023-04-25T02:27:55;11.00;99.90
19342;DHT22;9807;48.258;12.690;2023-04-25T02:30:21;11.20;99.90
19342;DHT22;9807;48.258;12.690;2023-04-25T02:32:47;11.40;99.90
19342;DHT22;9807;48.258;12.690;2023-04-25T02:35:13;11.50;99.90
19342;DHT22;9807;48.258;12.690;2023-04-25T02:37:39;11.40;99.90
19342;DHT22;9807;48.258;12.690;2023-04-25T02:40:06;11.10;99.90
19342;DHT22;9807;48.258;12.690;2023-04-25T02:42:38;11.00;99.90
19342;DHT22;9807;48.258;12.690;2023-04-25T02:45:03;10.80;99.90
19342;DHT22;9807;48.258;12.690;2023-04-25T02:47:29;10.70;99.90
19342;DHT22;9807;48.258;12.690;2023-04-25T02:49:56;10.90;99.90
19342;DHT22;9807;48.258;12.690;2023-04-25T02:52:21;11.10;99.90
19342;DHT22;9807;48.258;12.690;2023-04-25T02:54:47;11.20;99.90
19342;DHT22;9807;48.258;12.690;2023-04-25T02:57:13;11.30;99.90
19342;DHT22;9807;48.258;12.690;2023-04-25T02:59:38;11.40;99.90
19342;DHT22;9807;48.258;12.690;2023-04-25T03:02:04;11.40;99.90
19342;DHT22;9807;48.258;12.690;2023-04-25T03:04:30;11.50;99.90
19342;DHT22;9807;48.258;12.690;2023-04-25T03:06:56;11.60;99.90
19342;DHT22;9807;48.258;12.690;2023-04-25T03:09:22;11.60;99.90
19342;DHT22;9807;48.258;12.690;2023-04-25T03:11:47;11.70;99.90
19342;DHT22;9807;48.258;12.690;2023-04-25T03:14:13;11.70;99.90
19342;DHT22;9807;48.258;12.690;2023-04-25T03:16:39;11.80;99.90
19342;DHT22;9807;48.258;12.690;2023-04-25T03:19:05;11.90;99.90
19342;DHT22;9807;48.258;12.690;2023-04-25T03:21:32;11.90;99.90
19342;DHT22;9807;48.258;12.690;2023-04-25T03:24:02;11.80;99.90
19342;DHT22;9807;48.258;12.690;2023-04-25T03:26:29;11.90;99.90
19342;DHT22;9807;48.258;12.690;2023-04-25T03:28:54;11.80;99.90
19342;DHT22;9807;48.258;12.690;2023-04-25T03:31:20;11.80;99.90
19342;DHT22;9807;48.258;12.690;2023-04-25T03:33:46;11.80;99.90
19342;DHT22;9807;48.258;12.690;2023-04-25T03:36:12;11.80;99.90
19342;DHT22;9807;48.258;12.690;2023-04-25T03:38:38;11.70;99.90
19342;DHT22;9807;48.258;12.690;2023-04-25T03:41:04;11.70;99.90
19342;DHT22;9807;48.258;12.690;2023-04-25T03:43:29;11.60;99.90
19342;DHT22;9807;48.258;12.690;2023-04-25T03:45:55;11.50;99.90
19342;DHT22;9807;48.258;12.690;2023-04-25T03:48:21;11.20;99.90
19342;DHT22;9807;48.258;12.690;2023-04-25T03:50:48;11.10;99.90
19342;DHT22;9807;48.258;12.690;2023-04-25T03:53:13;11.00;99.90
19342;DHT22;9807;48.258;12.690;2023-04-25T03:55:39;11.10;99.90
19342;DHT22;9807;48.258;12.690;2023-04-25T03:58:05;11.20;99.90
19342;DHT22;9807;48.258;12.690;2023-04-25T04:00:31;11.30;99.90
19342;DHT22;9807;48.258;12.690;2023-04-25T04:02:57;11.30;99.90
19342;DHT22;9807;48.258;12.690;2023-04-25T04:05:22;11.40;99.90
19342;DHT22;9807;48.258;12.690;2023-04-25T04:07:48;11.40;99.90
19342;DHT22;9807;48.258;12.690;2023-04-25T04:10:15;11.40;99.90
19342;DHT22;9807;48.258;12.690;2023-04-25T04:12:40;11.50;99.90
19342;DHT22;9807;48.258;12.690;2023-04-25T04:15:07;11.50;99.90
19342;DHT22;9807;48.258;12.690;2023-04-25T04:17:33;11.40;99.90
19342;DHT22;9807;48.258;12.690;2023-04-25T04:19:59;11.40;99.90
19342;DHT22;9807;48.258;12.690;2023-04-25T04:22:28;11.40;99.90
19342;DHT22;9807;48.258;12.690;2023-04-25T04:24:54;11.40;99.90
19342;DHT22;9807;48.258;12.690;2023-04-25T04:27:20;11.30;99.90
19342;DHT22;9807;48.258;12.690;2023-04-25T04:29:46;11.10;99.90
19342;DHT22;9807;48.258;12.690;2023-04-25T04:32:14;10.80;99.90
19342;DHT22;9807;48.258;12.690;2023-04-25T04:34:39;10.40;99.90
19342;DHT22;9807;48.258;12.690;2023-04-25T04:37:06;10.30;99.90
19342;DHT22;9807;48.258;12.690;2023-04-25T04:39:35;10.20;99.90
19342;DHT22;9807;48.258;12.690;2023-04-25T04:42:00;10.50;99.90
19342;DHT22;9807;48.258;12.690;2023-04-25T04:44:30;10.70;99.90
19342;DHT22;9807;48.258;12.690;2023-04-25T04:47:01;10.90;99.90
19342;DHT22;9807;48.258;12.690;2023-04-25T04:49:27;11.00;99.90
19342;DHT22;9807;48.258;12.690;2023-04-25T04:51:53;10.90;99.90
19342;DHT22;9807;48.258;12.690;2023-04-25T04:54:20;10.90;99.90
19342;DHT22;9807;48.258;12.690;2023-04-25T04:56:45;10.50;99.90
19342;DHT22;9807;48.258;12.690;2023-04-25T04:59:11;9.80;99.90
19342;DHT22;9807;48.258;12.690;2023-04-25T05:01:37;9.30;99.90
19342;DHT22;9807;48.258;12.690;2023-04-25T05:04:03;9.10;99.90
19342;DHT22;9807;48.258;12.690;2023-04-25T05:06:29;9.00;99.90
19342;DHT22;9807;48.258;12.690;2023-04-25T05:08:56;9.00;99.90
19342;DHT22;9807;48.258;12.690;2023-04-25T05:11:22;8.90;99.90
19342;DHT22;9807;48.258;12.690;2023-04-25T05:13:49;8.60;99.90
19342;DHT22;9807;48.258;12.690;2023-04-25T05:16:15;8.50;99.90
19342;DHT22;9807;48.258;12.690;2023-04-25T05:18:43;8.30;99.90
19342;DHT22;9807;48.258;12.690;2023-04-25T05:21:09;8.10;99.90
19342;DHT22;9807;48.258;12.690;2023-04-25T05:23:35;8.00;99.90
19342;DHT22;9807;48.258;12.690;2023-04-25T05:26:00;8.00;99.90
19342;DHT22;9807;48.258;12.690;2023-04-25T05:28:29;8.00;99.90
19342;DHT22;9807;48.258;12.690;2023-04-25T05:30:57;8.00;99.90
19342;DHT22;9807;48.258;12.690;2023-04-25T05:33:23;8.00;99.90
19342;DHT22;9807;48.258;12.690;2023-04-25T05:35:49;8.00;99.90
19342;DHT22;9807;48.258;12.690;2023-04-25T05:38:15;8.10;99.90
19342;DHT22;9807;48.258;12.690;2023-04-25T05:40:41;8.20;99.90
19342;DHT22;9807;48.258;12.690;2023-04-25T05:43:07;8.20;99.90
19342;DHT22;9807;48.258;12.690;2023-04-25T05:45:33;8.20;99.90
19342;DHT22;9807;48.258;12.690;2023-04-25T05:48:02;8.10;99.90
19342;DHT22;9807;48.258;12.690;2023-04-25T05:50:28;8.00;99.90
19342;DHT22;9807;48.258;12.690;2023-04-25T05:52:53;7.90;99.90
19342;DHT22;9807;48.258;12.690;2023-04-25T05:55:19;7.90;99.90
19342;DHT22;9807;48.258;12.690;2023-04-25T05:57:45;7.80;99.90
19342;DHT22;9807;48.258;12.690;2023-04-25T06:00:12;7.80;99.90
19342;DHT22;9807;48.258;12.690;2023-04-25T06:02:40;8.00;99.90
19342;DHT22;9807;48.258;12.690;2023-04-25T06:05:06;7.90;99.90
19342;DHT22;9807;48.258;12.690;2023-04-25T06:07:32;7.90;99.90
19342;DHT22;9807;48.258;12.690;2023-04-25T06:09:57;7.80;99.90
19342;DHT22;9807;48.258;12.690;2023-04-25T06:12:26;7.80;99.90
19342;DHT22;9807;48.258;12.690;2023-04-25T06:14:52;7.80;99.90
19342;DHT22;9807;48.258;12.690;2023-04-25T06:17:18;7.90;99.90
19342;DHT22;9807;48.258;12.690;2023-04-25T06:19:44;7.90;99.90
19342;DHT22;9807;48.258;12.690;2023-04-25T06:22:12;8.00;99.90
19342;DHT22;9807;48.258;12.690;2023-04-25T06:24:41;8.00;99.90
19342;DHT22;9807;48.258;12.690;2023-04-25T06:27:07;8.10;99.90
19342;DHT22;9807;48.258;12.690;2023-04-25T06:29:33;8.10;99.90
19342;DHT22;9807;48.258;12.690;2023-04-25T06:32:01;8.10;99.90
19342;DHT22;9807;48.258;12.690;2023-04-25T06:34:27;8.20;99.90
19342;DHT22;9807;48.258;12.690;2023-04-25T06:36:53;8.30;99.90
19342;DHT22;9807;48.258;12.690;2023-04-25T06:39:18;8.40;99.90
19342;DHT22;9807;48.258;12.690;2023-04-25T06:41:45;8.60;99.90
19342;DHT22;9807;48.258;12.690;2023-04-25T06:44:11;8.80;99.90
19342;DHT22;9807;48.258;12.690;2023-04-25T06:46:36;9.00;99.90
19342;DHT22;9807;48.258;12.690;2023-04-25T06:49:03;9.10;99.90
19342;DHT22;9807;48.258;12.690;2023-04-25T06:51:29;9.20;99.90
19342;DHT22;9807;48.258;12.690;2023-04-25T06:53:56;9.20;99.90
19342;DHT22;9807;48.258;12.690;2023-04-25T06:56:21;9.20;99.90
19342;DHT22;9807;48.258;12.690;2023-04-25T06:58:48;9.20;99.90
19342;DHT22;9807;48.258;12.690;2023-04-25T07:01:14;9.20;99.90
19342;DHT22;9807;48.258;12.690;2023-04-25T07:03:43;9.30;99.90
19342;DHT22;9807;48.258;12.690;2023-04-25T07:06:09;9.30;99.90
19342;DHT22;9807;48.258;12.690;2023-04-25T07:08:34;9.40;99.90
19342;DHT22;9807;48.258;12.690;2023-04-25T07:11:00;9.50;99.90
19342;DHT22;9807;48.258;12.690;2023-04-25T07:13:26;9.60;99.90
19342;DHT22;9807;48.258;12.690;2023-04-25T07:15:51;9.70;99.90
19342;DHT22;9807;48.258;12.690;2023-04-25T07:18:17;9.70;99.90
19342;DHT22;9807;48.258;12.690;2023-04-25T07:20:43;9.80;99.90
19342;DHT22;9807;48.258;12.690;2023-04-25T07:23:09;9.90;99.90
19342;DHT22;9807;48.258;12.690;2023-04-25T07:25:37;9.80;99.90
19342;DHT22;9807;48.258;12.690;2023-04-25T07:28:03;9.80;99.90
19342;DHT22;9807;48.258;12.690;2023-04-25T07:30:30;9.70;99.90
19342;DHT22;9807;48.258;12.690;2023-04-25T07:32:56;9.70;99.90
19342;DHT22;9807;48.258;12.690;2023-04-25T07:35:28;9.80;99.90
19342;DHT22;9807;48.258;12.690;2023-04-25T07:37:53;9.90;99.90
19342;DHT22;9807;48.258;12.690;2023-04-25T07:40:19;9.90;99.90
19342;DHT22;9807;48.258;12.690;2023-04-25T07:42:45;9.90;99.90
19342;DHT22;9807;48.258;12.690;2023-04-25T07:45:10;9.90;99.90
19342;DHT22;9807;48.258;12.690;2023-04-25T07:47:36;9.90;99.90
19342;DHT22;9807;48.258;12.690;2023-04-25T07:50:03;9.90;99.90
19342;DHT22;9807;48.258;12.690;2023-04-25T07:52:29;9.90;99.90
19342;DHT22;9807;48.258;12.690;2023-04-25T07:54:57;9.90;99.90
19342;DHT22;9807;48.258;12.690;2023-04-25T07:57:24;9.90;99.90
19342;DHT22;9807;48.258;12.690;2023-04-25T07:59:53;9.90;99.90
19342;DHT22;9807;48.258;12.690;2023-04-25T08:02:18;9.90;99.90
19342;DHT22;9807;48.258;12.690;2023-04-25T08:04:44;10.20;99.90
19342;DHT22;9807;48.258;12.690;2023-04-25T08:07:10;10.30;99.90
19342;DHT22;9807;48.258;12.690;2023-04-25T08:09:35;10.60;99.90
19342;DHT22;9807;48.258;12.690;2023-04-25T08:12:02;10.50;99.90
19342;DHT22;9807;48.258;12.690;2023-04-25T08:14:28;10.40;99.90
19342;DHT22;9807;48.258;12.690;2023-04-25T08:16:56;10.00;99.90
19342;DHT22;9807;48.258;12.690;2023-04-25T08:19:22;9.70;99.90
19342;DHT22;9807;48.258;12.690;2023-04-25T08:21:47;9.50;99.90
19342;DHT22;9807;48.258;12.690;2023-04-25T08:24:13;9.50;99.90
19342;DHT22;9807;48.258;12.690;2023-04-25T08:26:39;9.40;99.90
19342;DHT22;9807;48.258;12.690;2023-04-25T08:29:06;9.40;99.90
19342;DHT22;9807;48.258;12.690;2023-04-25T08:31:35;9.30;99.90
19342;DHT22;9807;48.258;12.690;2023-04-25T08:34:00;9.10;99.90
19342;DHT22;9807;48.258;12.690;2023-04-25T08:36:26;9.00;99.90
19342;DHT22;9807;48.258;12.690;2023-04-25T08:38:53;9.00;99.90
19342;DHT22;9807;48.258;12.690;2023-04-25T08:41:19;9.00;99.90
19342;DHT22;9807;48.258;12.690;2023-04-25T08:43:48;8.80;99.90
19342;DHT22;9807;48.258;12.690;2023-04-25T08:46:18;8.80;99.90
19342;DHT22;9807;48.258;12.690;2023-04-25T08:48:47;8.90;99.90
19342;DHT22;9807;48.258;12.690;2023-04-25T08:51:22;8.80;99.90
19342;DHT22;9807;48.258;12.690;2023-04-25T08:53:52;8.70;99.90
19342;DHT22;9807;48.258;12.690;2023-04-25T08:56:18;8.60;99.90
19342;DHT22;9807;48.258;12.690;2023-04-25T08:58:48;8.60;99.90
19342;DHT22;9807;48.258;12.690;2023-04-25T09:01:18;8.80;99.90
19342;DHT22;9807;48.258;12.690;2023-04-25T09:03:47;9.00;99.90
19342;DHT22;9807;48.258;12.690;2023-04-25T09:06:13;9.30;99.90
19342;DHT22;9807;48.258;12.690;2023-04-25T09:08:39;9.50;99.90
19342;DHT22;9807;48.258;12.690;2023-04-25T09:11:06;9.80;99.90
19342;DHT22;9807;48.258;12.690;2023-04-25T09:13:32;10.00;99.90
19342;DHT22;9807;48.258;12.690;2023-04-25T09:16:02;10.20;99.90
19342;DHT22;9807;48.258;12.690;2023-04-25T09:18:32;10.30;99.90
19342;DHT22;9807;48.258;12.690;2023-04-25T09:21:07;10.20;99.90
19342;DHT22;9807;48.258;12.690;2023-04-25T09:23:43;10.00;99.90
19342;DHT22;9807;48.258;12.690;2023-04-25T09:26:09;10.00;99.90
19342;DHT22;9807;48.258;12.690;2023-04-25T09:28:35;10.10;99.90
19342;DHT22;9807;48.258;12.690;2023-04-25T09:31:04;10.20;99.90
19342;DHT22;9807;48.258;12.690;2023-04-25T09:33:32;10.10;99.90
19342;DHT22;9807;48.258;12.690;2023-04-25T09:36:09;10.10;99.90
19342;DHT22;9807;48.258;12.690;2023-04-25T09:38:46;10.20;99.90
19342;DHT22;9807;48.258;12.690;2023-04-25T09:41:12;10.20;99.90
19342;DHT22;9807;48.258;12.690;2023-04-25T09:43:38;10.20;99.90
19342;DHT22;9807;48.258;12.690;2023-04-25T09:46:09;10.20;99.90
19342;DHT22;9807;48.258;12.690;2023-04-25T09:48:37;10.20;99.90
19342;DHT22;9807;48.258;12.690;2023-04-25T09:51:13;10.50;99.90
19342;DHT22;9807;48.258;12.690;2023-04-25T09:53:47;10.70;99.90
19342;DHT22;9807;48.258;12.690;2023-04-25T09:56:16;10.70;99.90
19342;DHT22;9807;48.258;12.690;2023-04-25T09:58:42;10.60;99.90
19342;DHT22;9807;48.258;12.690;2023-04-25T10:01:11;10.60;99.90
19342;DHT22;9807;48.258;12.690;2023-04-25T10:03:39;10.60;99.90
19342;DHT22;9807;48.258;12.690;2023-04-25T10:06:14;10.60;99.90
19342;DHT22;9807;48.258;12.690;2023-04-25T10:08:55;10.80;99.90
19342;DHT22;9807;48.258;12.690;2023-04-25T10:11:21;10.80;99.90
19342;DHT22;9807;48.258;12.690;2023-04-25T10:13:49;11.00;99.90
19342;DHT22;9807;48.258;12.690;2023-04-25T10:16:18;11.10;99.90
19342;DHT22;9807;48.258;12.690;2023-04-25T10:18:57;11.40;99.90
19342;DHT22;9807;48.258;12.690;2023-04-25T10:21:26;11.50;99.90
19342;DHT22;9807;48.258;12.690;2023-04-25T10:23:54;11.50;99.90
19342;DHT22;9807;48.258;12.690;2023-04-25T10:26:26;11.50;99.90
19342;DHT22;9807;48.258;12.690;2023-04-25T10:29:03;11.50;99.90
19342;DHT22;9807;48.258;12.690;2023-04-25T10:31:30;11.80;99.90
19342;DHT22;9807;48.258;12.690;2023-04-25T10:33:56;11.90;99.90
19342;DHT22;9807;48.258;12.690;2023-04-25T10:36:23;11.70;99.90
19342;DHT22;9807;48.258;12.690;2023-04-25T10:38:53;11.80;99.90
19342;DHT22;9807;48.258;12.690;2023-04-25T10:41:20;12.00;99.90
19342;DHT22;9807;48.258;12.690;2023-04-25T10:43:47;12.10;99.90
19342;DHT22;9807;48.258;12.690;2023-04-25T10:46:18;12.10;99.90
19342;DHT22;9807;48.258;12.690;2023-04-25T10:49:05;12.20;99.90
19342;DHT22;9807;48.258;12.690;2023-04-25T10:51:34;12.10;99.90
19342;DHT22;9807;48.258;12.690;2023-04-25T10:54:05;10.80;99.90
19342;DHT22;9807;48.258;12.690;2023-04-25T10:56:41;9.90;99.90
19342;DHT22;9807;48.258;12.690;2023-04-25T10:59:17;9.60;99.90
19342;DHT22;9807;48.258;12.690;2023-04-25T11:01:53;9.30;99.90
19342;DHT22;9807;48.258;12.690;2023-04-25T11:04:30;8.90;99.90
19342;DHT22;9807;48.258;12.690;2023-04-25T11:09:24;8.40;99.90
19342;DHT22;9807;48.258;12.690;2023-04-25T11:12:01;8.30;99.90
19342;DHT22;9807;48.258;12.690;2023-04-25T11:14:27;8.20;99.90
19342;DHT22;9807;48.258;12.690;2023-04-25T11:16:57;8.20;99.90
19342;DHT22;9807;48.258;12.690;2023-04-25T11:19:24;8.10;99.90
19342;DHT22;9807;48.258;12.690;2023-04-25T11:21:50;8.10;99.90
19342;DHT22;9807;48.258;12.690;2023-04-25T11:24:18;8.20;99.90
19342;DHT22;9807;48.258;12.690;2023-04-25T11:26:47;8.40;99.90
19342;DHT22;9807;48.258;12.690;2023-04-25T11:29:13;8.70;99.90
19342;DHT22;9807;48.258;12.690;2023-04-25T11:31:43;9.00;99.90
19342;DHT22;9807;48.258;12.690;2023-04-25T11:34:10;9.60;99.90
19342;DHT22;9807;48.258;12.690;2023-04-25T11:36:38;10.40;99.90
19342;DHT22;9807;48.258;12.690;2023-04-25T11:39:04;10.90;99.90
19342;DHT22;9807;48.258;12.690;2023-04-25T11:41:31;11.00;99.90
19342;DHT22;9807;48.258;12.690;2023-04-25T11:43:57;11.00;99.90
19342;DHT22;9807;48.258;12.690;2023-04-25T11:46:22;11.40;99.90
19342;DHT22;9807;48.258;12.690;2023-04-25T11:48:48;11.60;99.90
19342;DHT22;9807;48.258;12.690;2023-04-25T11:51:16;11.70;99.90
19342;DHT22;9807;48.258;12.690;2023-04-25T11:53:42;12.00;99.90
19342;DHT22;9807;48.258;12.690;2023-04-25T11:56:10;12.20;99.90
19342;DHT22;9807;48.258;12.690;2023-04-25T11:58:56;12.30;99.90
19342;DHT22;9807;48.258;12.690;2023-04-25T12:01:29;12.30;99.90
19342;DHT22;9807;48.258;12.690;2023-04-25T12:06:38;11.30;99.90
19342;DHT22;9807;48.258;12.690;2023-04-25T12:09:07;10.80;99.90
19342;DHT22;9807;48.258;12.690;2023-04-25T12:14:10;10.60;99.90
19342;DHT22;9807;48.258;12.690;2023-04-25T12:16:45;10.50;99.90
19342;DHT22;9807;48.258;12.690;2023-04-25T12:19:19;10.40;99.90
19342;DHT22;9807;48.258;12.690;2023-04-25T12:21:46;10.40;99.90
19342;DHT22;9807;48.258;12.690;2023-04-25T12:24:22;10.40;99.90
19342;DHT22;9807;48.258;12.690;2023-04-25T12:27:01;10.50;99.90
19342;DHT22;9807;48.258;12.690;2023-04-25T12:29:29;10.40;99.90
19342;DHT22;9807;48.258;12.690;2023-04-25T12:31:55;10.40;99.90
19342;DHT22;9807;48.258;12.690;2023-04-25T12:34:22;10.20;99.90
19342;DHT22;9807;48.258;12.690;2023-04-25T12:36:48;10.00;99.90
19342;DHT22;9807;48.258;12.690;2023-04-25T12:39:22;9.80;99.90
19342;DHT22;9807;48.258;12.690;2023-04-25T12:41:49;9.60;99.90
19342;DHT22;9807;48.258;12.690;2023-04-25T12:44:16;9.40;99.90
19342;DHT22;9807;48.258;12.690;2023-04-25T12:46:42;9.30;99.90
19342;DHT22;9807;48.258;12.690;2023-04-25T12:49:08;9.30;99.90
19342;DHT22;9807;48.258;12.690;2023-04-25T12:51:48;9.40;99.90
19342;DHT22;9807;48.258;12.690;2023-04-25T12:54:14;9.30;99.90
19342;DHT22;9807;48.258;12.690;2023-04-25T12:56:42;9.30;99.90
19342;DHT22;9807;48.258;12.690;2023-04-25T12:59:11;9.20;99.90
19342;DHT22;9807;48.258;12.690;2023-04-25T13:01:37;9.10;99.90
19342;DHT22;9807;48.258;12.690;2023-04-25T13:04:03;9.00;99.90
19342;DHT22;9807;48.258;12.690;2023-04-25T13:06:29;8.90;99.90
19342;DHT22;9807;48.258;12.690;2023-04-25T13:08:57;8.80;99.90
19342;DHT22;9807;48.258;12.690;2023-04-25T13:11:23;8.70;99.90
19342;DHT22;9807;48.258;12.690;2023-04-25T13:13:51;8.60;99.90
19342;DHT22;9807;48.258;12.690;2023-04-25T13:16:17;8.70;99.90
19342;DHT22;9807;48.258;12.690;2023-04-25T13:18:46;8.80;99.90
19342;DHT22;9807;48.258;12.690;2023-04-25T13:21:11;8.70;99.90
19342;DHT22;9807;48.258;12.690;2023-04-25T13:23:37;8.70;99.90
19342;DHT22;9807;48.258;12.690;2023-04-25T13:26:05;8.60;99.90
19342;DHT22;9807;48.258;12.690;2023-04-25T13:28:37;8.60;99.90
19342;DHT22;9807;48.258;12.690;2023-04-25T13:31:09;8.50;99.90
19342;DHT22;9807;48.258;12.690;2023-04-25T13:33:35;8.50;99.90
19342;DHT22;9807;48.258;12.690;2023-04-25T13:36:01;8.50;99.90
19342;DHT22;9807;48.258;12.690;2023-04-25T13:38:27;8.50;99.90
19342;DHT22;9807;48.258;12.690;2023-04-25T13:40:52;8.30;99.90
19342;DHT22;9807;48.258;12.690;2023-04-25T13:43:20;8.20;99.90
19342;DHT22;9807;48.258;12.690;2023-04-25T13:45:50;8.20;99.90
19342;DHT22;9807;48.258;12.690;2023-04-25T13:48:20;8.20;99.90
19342;DHT22;9807;48.258;12.690;2023-04-25T13:50:46;8.20;99.90
19342;DHT22;9807;48.258;12.690;2023-04-25T13:53:12;8.10;99.90
19342;DHT22;9807;48.258;12.690;2023-04-25T13:55:37;8.10;99.90
19342;DHT22;9807;48.258;12.690;2023-04-25T13:58:04;8.10;99.90
19342;DHT22;9807;48.258;12.690;2023-04-25T14:00:34;8.10;99.90
19342;DHT22;9807;48.258;12.690;2023-04-25T14:03:04;8.00;99.90
19342;DHT22;9807;48.258;12.690;2023-04-25T14:05:32;8.00;99.90
19342;DHT22;9807;48.258;12.690;2023-04-25T14:08:00;8.00;99.90
19342;DHT22;9807;48.258;12.690;2023-04-25T14:10:26;8.10;99.90
19342;DHT22;9807;48.258;12.690;2023-04-25T14:12:51;8.30;99.90
19342;DHT22;9807;48.258;12.690;2023-04-25T14:15:17;8.40;99.90
19342;DHT22;9807;48.258;12.690;2023-04-25T14:17:43;8.60;99.90
19342;DHT22;9807;48.258;12.690;2023-04-25T14:20:13;8.70;99.90
19342;DHT22;9807;48.258;12.690;2023-04-25T14:22:42;8.70;99.90
19342;DHT22;9807;48.258;12.690;2023-04-25T14:25:09;8.70;99.90
19342;DHT22;9807;48.258;12.690;2023-04-25T14:27:35;8.80;99.90
19342;DHT22;9807;48.258;12.690;2023-04-25T14:30:01;8.90;99.90
19342;DHT22;9807;48.258;12.690;2023-04-25T14:32:26;8.80;99.90
19342;DHT22;9807;48.258;12.690;2023-04-25T14:34:52;9.00;99.90
19342;DHT22;9807;48.258;12.690;2023-04-25T14:37:18;9.00;99.90
19342;DHT22;9807;48.258;12.690;2023-04-25T14:39:44;9.00;99.90
19342;DHT22;9807;48.258;12.690;2023-04-25T14:42:20;9.00;99.90
19342;DHT22;9807;48.258;12.690;2023-04-25T14:44:48;9.00;99.90
19342;DHT22;9807;48.258;12.690;2023-04-25T14:47:14;9.00;99.90
19342;DHT22;9807;48.258;12.690;2023-04-25T14:49:41;9.10;99.90
19342;DHT22;9807;48.258;12.690;2023-04-25T14:52:09;9.10;99.90
19342;DHT22;9807;48.258;12.690;2023-04-25T14:54:35;9.10;99.90
19342;DHT22;9807;48.258;12.690;2023-04-25T14:57:01;9.20;99.90
19342;DHT22;9807;48.258;12.690;2023-04-25T14:59:27;9.20;99.90
19342;DHT22;9807;48.258;12.690;2023-04-25T15:01:53;9.30;99.90
19342;DHT22;9807;48.258;12.690;2023-04-25T15:04:21;9.40;99.90
19342;DHT22;9807;48.258;12.690;2023-04-25T15:06:50;9.60;99.90
19342;DHT22;9807;48.258;12.690;2023-04-25T15:09:16;9.60;99.90
19342;DHT22;9807;48.258;12.690;2023-04-25T15:11:42;9.60;99.90
19342;DHT22;9807;48.258;12.690;2023-04-25T15:14:08;9.50;99.90
19342;DHT22;9807;48.258;12.690;2023-04-25T15:16:34;9.40;99.90
19342;DHT22;9807;48.258;12.690;2023-04-25T15:19:02;9.40;99.90
19342;DHT22;9807;48.258;12.690;2023-04-25T15:21:31;9.20;99.90
19342;DHT22;9807;48.258;12.690;2023-04-25T15:24:06;9.00;99.90
19342;DHT22;9807;48.258;12.690;2023-04-25T15:26:39;8.70;99.90
19342;DHT22;9807;48.258;12.690;2023-04-25T15:29:04;8.40;99.90
19342;DHT22;9807;48.258;12.690;2023-04-25T15:31:30;8.10;99.90
19342;DHT22;9807;48.258;12.690;2023-04-25T15:33:56;8.00;99.90
19342;DHT22;9807;48.258;12.690;2023-04-25T15:36:25;8.00;99.90
19342;DHT22;9807;48.258;12.690;2023-04-25T15:39:03;8.10;99.90
19342;DHT22;9807;48.258;12.690;2023-04-25T15:41:29;8.10;99.90
19342;DHT22;9807;48.258;12.690;2023-04-25T15:44:02;8.20;99.90
19342;DHT22;9807;48.258;12.690;2023-04-25T15:46:28;8.40;99.90
19342;DHT22;9807;48.258;12.690;2023-04-25T15:48:55;8.60;99.90